Time;durP1;ratioP1;P1;durP2;ratioP2;P2;SDS_P1;SDS_P2;PMS_P1;PMS_P2;Temp;Humidity;BMP_temperature;BMP_pressure;BME280_temperature;BME280_humidity;BME280_pressure;Samples;Min_cycle;Max_cycle;Signal;HPM_P1;HPM_P2
2022/03/28 00:00:56;;;;;;;8.43;1.43;;;10.00;99.90;;;;;;5033374;28;20163;-68
2022/03/28 00:03:21;;;;;;;1.20;0.73;;;10.00;99.90;;;;;;5033087;28;20251;-68
2022/03/28 00:05:47;;;;;;;0.80;0.50;;;10.00;99.90;;;;;;5031788;28;20458;-68
2022/03/28 00:08:13;;;;;;;1.50;0.77;;;9.90;99.90;;;;;;5033218;28;20574;-68
2022/03/28 00:10:39;;;;;;;0.80;0.70;;;9.80;99.90;;;;;;5033172;28;20441;-67
2022/03/28 00:13:05;;;;;;;0.80;0.50;;;9.80;99.90;;;;;;5032924;28;20194;-68
2022/03/28 00:15:30;;;;;;;0.80;0.50;;;9.80;99.90;;;;;;5032941;28;20423;-68
2022/03/28 00:17:56;;;;;;;0.90;0.80;;;9.80;99.90;;;;;;5031769;28;20518;-68
2022/03/28 00:20:23;;;;;;;0.80;0.60;;;9.70;99.90;;;;;;5032945;28;20638;-69
2022/03/28 00:22:48;;;;;;;0.80;0.60;;;9.60;99.90;;;;;;5032657;28;20164;-68
2022/03/28 00:25:14;;;;;;;0.80;0.70;;;9.60;99.90;;;;;;5032761;28;20480;-68
2022/03/28 00:27:40;;;;;;;0.90;0.60;;;9.60;99.90;;;;;;5032390;28;20695;-68
2022/03/28 00:30:08;;;;;;;2.07;1.57;;;9.60;99.90;;;;;;5032715;28;20402;-69
2022/03/28 00:32:33;;;;;;;0.80;0.60;;;9.50;99.90;;;;;;5032531;28;20170;-69
2022/03/28 00:35:00;;;;;;;0.80;0.70;;;9.50;99.90;;;;;;5032555;28;20426;-69
2022/03/28 00:37:25;;;;;;;1.57;0.97;;;9.40;99.90;;;;;;5032686;28;20199;-68
2022/03/28 00:39:51;;;;;;;2.50;0.87;;;9.40;99.90;;;;;;5032664;28;20412;-68
2022/03/28 00:42:16;;;;;;;0.80;0.50;;;9.30;99.90;;;;;;5032660;28;20402;-69
2022/03/28 00:44:42;;;;;;;1.00;0.80;;;9.30;99.90;;;;;;5030927;28;20192;-69
2022/03/28 00:47:08;;;;;;;0.80;0.70;;;9.30;99.90;;;;;;5032506;28;20183;-68
2022/03/28 00:49:34;;;;;;;0.90;0.80;;;9.20;99.90;;;;;;5032517;28;20535;-69
2022/03/28 00:52:00;;;;;;;0.90;0.90;;;9.20;99.90;;;;;;5032366;28;20163;-68
2022/03/28 00:54:25;;;;;;;0.90;0.70;;;9.20;99.90;;;;;;5031886;28;20468;-68
2022/03/28 00:56:51;;;;;;;0.80;0.50;;;9.10;99.90;;;;;;5032342;28;20745;-68
2022/03/28 00:59:17;;;;;;;0.80;0.60;;;9.10;99.90;;;;;;5032187;28;20195;-68
2022/03/28 01:01:45;;;;;;;2.30;2.20;;;9.10;99.90;;;;;;5032333;28;20171;-67
2022/03/28 01:04:11;;;;;;;0.97;0.87;;;9.00;99.90;;;;;;5031914;28;20398;-68
2022/03/28 01:06:37;;;;;;;0.80;0.60;;;9.00;99.90;;;;;;5032190;28;20409;-68
2022/03/28 01:09:03;;;;;;;1.97;1.87;;;9.00;99.90;;;;;;5032393;28;20263;-68
2022/03/28 01:11:32;;;;;;;1.10;1.00;;;8.90;99.90;;;;;;5032030;28;20406;-68
2022/03/28 01:13:59;;;;;;;0.80;0.50;;;8.90;99.90;;;;;;5031664;28;20407;-68
2022/03/28 01:16:27;;;;;;;0.80;0.60;;;8.90;99.90;;;;;;5032079;28;20756;-67
2022/03/28 01:18:53;;;;;;;1.03;0.93;;;8.90;99.90;;;;;;5031985;28;20442;-69
2022/03/28 01:21:19;;;;;;;1.57;1.47;;;8.80;99.90;;;;;;5032018;28;20406;-68
2022/03/28 01:23:45;;;;;;;6.23;2.57;;;8.80;99.90;;;;;;5031694;28;20410;-68
2022/03/28 01:26:12;;;;;;;1.30;1.07;;;8.80;99.90;;;;;;5031836;28;20270;-68
2022/03/28 01:28:38;;;;;;;1.00;0.90;;;8.70;99.90;;;;;;5032075;28;20182;-69
2022/03/28 01:31:03;;;;;;;0.70;0.50;;;8.70;99.90;;;;;;5032148;28;20405;-69
2022/03/28 01:33:29;;;;;;;0.80;0.60;;;8.70;99.90;;;;;;5031738;28;20891;-70
2022/03/28 01:35:55;;;;;;;0.80;0.50;;;8.70;99.90;;;;;;5031864;28;20669;-69
2022/03/28 01:38:21;;;;;;;1.17;0.67;;;8.60;99.90;;;;;;5030780;28;20210;-67
2022/03/28 01:40:50;;;;;;;1.00;0.90;;;8.60;99.90;;;;;;5034861;28;20179;-68
2022/03/28 01:43:16;;;;;;;1.60;0.70;;;8.60;99.90;;;;;;5035598;28;20449;-69
2022/03/28 01:45:42;;;;;;;1.07;0.97;;;8.60;99.90;;;;;;5035910;28;20552;-69
2022/03/28 01:48:08;;;;;;;2.20;2.10;;;8.50;99.90;;;;;;5035492;28;20407;-68
2022/03/28 01:50:34;;;;;;;0.80;0.50;;;8.50;99.90;;;;;;5035830;28;20176;-68
2022/03/28 01:53:00;;;;;;;4.23;0.90;;;8.50;99.90;;;;;;5035392;28;20414;-69
2022/03/28 01:55:26;;;;;;;0.80;0.60;;;8.50;99.90;;;;;;5035604;28;20452;-69
2022/03/28 01:57:52;;;;;;;2.00;1.80;;;8.40;99.90;;;;;;5035482;28;20226;-69
2022/03/28 02:00:21;;;;;;;0.90;0.70;;;8.40;99.90;;;;;;5035650;28;20172;-69
2022/03/28 02:02:47;;;;;;;1.53;1.43;;;8.30;99.90;;;;;;5035408;28;20402;-69
2022/03/28 02:05:15;;;;;;;0.80;0.57;;;8.30;99.90;;;;;;5035790;28;20915;-69
2022/03/28 02:07:43;;;;;;;1.70;1.60;;;8.30;99.90;;;;;;5035558;28;20171;-69
2022/03/28 02:10:11;;;;;;;0.80;0.60;;;8.20;99.90;;;;;;5035222;28;20763;-69
2022/03/28 02:12:37;;;;;;;0.80;0.70;;;8.10;99.90;;;;;;5034989;28;20905;-69
2022/03/28 02:15:04;;;;;;;1.37;0.80;;;8.10;99.90;;;;;;5035133;28;20458;-68
2022/03/28 02:17:31;;;;;;;0.93;0.83;;;8.10;99.90;;;;;;5035350;28;20709;-68
2022/03/28 02:19:57;;;;;;;0.80;0.57;;;8.00;99.90;;;;;;5035140;28;20406;-69
2022/03/28 02:22:23;;;;;;;1.70;1.60;;;8.00;99.90;;;;;;5035283;28;20398;-68
2022/03/28 02:24:48;;;;;;;0.80;0.50;;;7.90;99.90;;;;;;5034735;28;20436;-69
2022/03/28 02:27:14;;;;;;;1.03;0.93;;;7.90;99.90;;;;;;5035129;28;20545;-68
2022/03/28 02:29:40;;;;;;;1.23;1.13;;;7.90;99.90;;;;;;5033860;28;20175;-68
2022/03/28 02:32:06;;;;;;;1.00;0.73;;;7.90;99.90;;;;;;5035062;28;20407;-69
2022/03/28 02:34:32;;;;;;;2.30;1.30;;;7.80;99.90;;;;;;5034621;28;20219;-69
2022/03/28 02:36:57;;;;;;;0.80;0.73;;;7.80;99.90;;;;;;5034971;28;20445;-69
2022/03/28 02:39:23;;;;;;;1.00;0.90;;;7.80;99.90;;;;;;5034986;28;20626;-69
2022/03/28 02:41:49;;;;;;;1.10;1.00;;;7.80;99.90;;;;;;5034989;28;20168;-68
2022/03/28 02:44:14;;;;;;;2.33;1.87;;;7.70;99.90;;;;;;5033153;28;20170;-68
2022/03/28 02:46:40;;;;;;;0.83;0.80;;;7.70;99.90;;;;;;5035095;28;20549;-69
2022/03/28 02:49:05;;;;;;;1.00;0.90;;;7.70;99.90;;;;;;5034585;28;20164;-68
2022/03/28 02:51:31;;;;;;;1.73;1.63;;;7.70;99.90;;;;;;5034710;28;20174;-69
2022/03/28 02:53:57;;;;;;;0.80;0.80;;;7.70;99.90;;;;;;5034183;28;20248;-69
2022/03/28 02:56:22;;;;;;;0.70;0.50;;;7.70;99.90;;;;;;5034589;28;20621;-69
2022/03/28 02:58:48;;;;;;;1.83;1.50;;;7.70;99.90;;;;;;5034505;28;20572;-68
2022/03/28 03:01:15;;;;;;;0.80;0.80;;;7.60;99.90;;;;;;5033527;28;20195;-68
2022/03/28 03:03:40;;;;;;;0.90;0.70;;;7.60;99.90;;;;;;5034238;28;20840;-70
2022/03/28 03:06:06;;;;;;;0.80;0.60;;;7.60;99.90;;;;;;5033182;28;20669;-69
2022/03/28 03:08:31;;;;;;;1.47;1.07;;;7.60;99.90;;;;;;5034409;28;20247;-68
2022/03/28 03:10:57;;;;;;;2.80;2.37;;;7.60;99.90;;;;;;5034278;28;20183;-68
2022/03/28 03:13:22;;;;;;;0.90;0.70;;;7.50;99.90;;;;;;5034076;28;20663;-69
2022/03/28 03:15:48;;;;;;;0.87;0.70;;;7.50;99.90;;;;;;5034448;28;20187;-68
2022/03/28 03:18:14;;;;;;;0.70;0.50;;;7.50;99.90;;;;;;5034278;28;20249;-68
2022/03/28 03:20:39;;;;;;;0.80;0.70;;;7.50;99.90;;;;;;5034186;28;20251;-68
2022/03/28 03:23:05;;;;;;;4.40;2.53;;;7.50;99.90;;;;;;5034026;28;20218;-68
2022/03/28 03:25:30;;;;;;;0.80;0.60;;;7.50;99.90;;;;;;5032807;28;20240;-68
2022/03/28 03:27:57;;;;;;;1.53;1.43;;;7.50;99.90;;;;;;5032790;28;20629;-68
2022/03/28 03:30:23;;;;;;;1.73;1.63;;;7.40;99.90;;;;;;5034087;28;20174;-68
2022/03/28 03:32:48;;;;;;;9.10;2.83;;;7.40;99.90;;;;;;5033679;28;20407;-68
2022/03/28 03:35:14;;;;;;;1.00;0.70;;;7.40;99.90;;;;;;5033868;28;20273;-68
2022/03/28 03:37:40;;;;;;;1.57;0.90;;;7.40;99.90;;;;;;5032597;28;20206;-67
2022/03/28 03:40:07;;;;;;;1.20;1.00;;;7.30;99.90;;;;;;5033827;28;20167;-69
2022/03/28 03:42:33;;;;;;;2.30;0.73;;;7.30;99.90;;;;;;5033909;28;20190;-69
2022/03/28 03:45:00;;;;;;;1.73;1.60;;;7.30;99.90;;;;;;5033492;28;20422;-67
2022/03/28 03:47:25;;;;;;;1.53;0.80;;;7.30;99.90;;;;;;5033664;28;20164;-69
2022/03/28 03:49:51;;;;;;;0.80;0.60;;;7.20;99.90;;;;;;5032434;28;20493;-68
2022/03/28 03:52:17;;;;;;;3.30;1.30;;;7.30;99.90;;;;;;5033602;28;20646;-68
2022/03/28 03:54:42;;;;;;;1.27;0.70;;;7.20;99.90;;;;;;5033049;28;20676;-68
2022/03/28 03:57:08;;;;;;;1.20;1.10;;;7.20;99.90;;;;;;5033340;28;20171;-69
2022/03/28 03:59:34;;;;;;;0.87;0.73;;;7.20;99.90;;;;;;5033533;28;20172;-69
2022/03/28 04:02:00;;;;;;;3.20;1.27;;;7.20;99.90;;;;;;5032958;28;20196;-69
2022/03/28 04:04:25;;;;;;;1.43;0.80;;;7.20;99.90;;;;;;5031524;28;20261;-68
2022/03/28 04:06:51;;;;;;;4.43;1.63;;;7.20;99.90;;;;;;5033347;28;20171;-68
2022/03/28 04:09:16;;;;;;;1.53;1.00;;;7.20;99.90;;;;;;5033279;28;20194;-69
2022/03/28 04:11:42;;;;;;;3.10;2.90;;;7.20;99.90;;;;;;5033272;28;20781;-69
2022/03/28 04:14:07;;;;;;;1.03;0.90;;;7.20;99.90;;;;;;5032469;28;20539;-68
2022/03/28 04:16:33;;;;;;;1.63;1.53;;;7.20;99.90;;;;;;5033135;28;20652;-68
2022/03/28 04:18:59;;;;;;;2.73;1.93;;;7.20;99.90;;;;;;5032968;28;20202;-68
2022/03/28 04:21:25;;;;;;;0.90;0.80;;;7.10;99.90;;;;;;5033090;28;20414;-68
2022/03/28 04:23:50;;;;;;;0.93;0.83;;;7.10;99.90;;;;;;5032547;28;20176;-71
2022/03/28 04:26:16;;;;;;;3.47;0.90;;;7.10;99.90;;;;;;5032871;28;20269;-69
2022/03/28 04:28:42;;;;;;;0.80;0.60;;;7.10;99.90;;;;;;5032976;28;20171;-68
2022/03/28 04:31:07;;;;;;;0.70;0.60;;;7.10;99.90;;;;;;5032826;28;20174;-68
2022/03/28 04:33:33;;;;;;;0.70;0.50;;;7.00;99.90;;;;;;5032655;28;20410;-68
2022/03/28 04:35:59;;;;;;;0.70;0.67;;;7.00;99.90;;;;;;5032755;28;20207;-69
2022/03/28 04:38:25;;;;;;;0.80;0.80;;;7.00;99.90;;;;;;5032547;28;20195;-68
2022/03/28 04:40:51;;;;;;;0.80;0.70;;;6.90;99.90;;;;;;5032752;28;20163;-69
2022/03/28 04:43:17;;;;;;;0.80;0.60;;;6.90;99.90;;;;;;5032351;28;20910;-68
2022/03/28 04:45:42;;;;;;;0.70;0.50;;;6.90;99.90;;;;;;5032498;28;20418;-68
2022/03/28 04:48:08;;;;;;;0.80;0.70;;;6.80;99.90;;;;;;5032557;28;20179;-69
2022/03/28 04:50:34;;;;;;;1.00;0.80;;;6.80;99.90;;;;;;5032504;28;20254;-69
2022/03/28 04:53:00;;;;;;;0.80;0.80;;;6.80;99.90;;;;;;5032243;28;20611;-69
2022/03/28 04:55:25;;;;;;;1.20;1.10;;;6.70;99.90;;;;;;5032169;28;20249;-68
2022/03/28 04:57:51;;;;;;;2.43;1.47;;;6.70;99.90;;;;;;5032345;28;20485;-69
2022/03/28 05:00:17;;;;;;;1.60;1.47;;;6.70;99.90;;;;;;5032328;28;20617;-69
2022/03/28 05:02:42;;;;;;;1.67;1.57;;;6.60;99.90;;;;;;5032339;28;20186;-68
2022/03/28 05:05:08;;;;;;;0.80;0.77;;;6.60;99.90;;;;;;5031852;28;20426;-69
2022/03/28 05:07:35;;;;;;;0.80;0.73;;;6.60;99.90;;;;;;5032306;28;20167;-68
2022/03/28 05:10:01;;;;;;;1.53;0.70;;;6.60;99.90;;;;;;5032250;28;20168;-69
2022/03/28 05:12:27;;;;;;;1.53;1.43;;;6.50;99.90;;;;;;5032211;28;20441;-69
2022/03/28 05:14:54;;;;;;;1.40;1.30;;;6.50;99.90;;;;;;5030850;28;20422;-68
2022/03/28 05:17:27;;;;;;;1.00;0.90;;;6.50;99.90;;;;;;5032034;28;20445;-68
2022/03/28 05:19:54;;;;;;;0.70;0.60;;;6.50;99.90;;;;;;5032154;28;20437;-68
2022/03/28 05:22:20;;;;;;;0.80;0.80;;;6.50;99.90;;;;;;5032160;28;20891;-69
2022/03/28 05:24:47;;;;;;;0.80;0.60;;;6.50;99.90;;;;;;5030335;28;20431;-69
2022/03/28 05:27:12;;;;;;;1.17;1.03;;;6.50;99.90;;;;;;5031932;28;20607;-68
2022/03/28 05:29:38;;;;;;;0.97;0.83;;;6.50;99.90;;;;;;5032038;28;20426;-70
2022/03/28 05:32:04;;;;;;;2.50;2.40;;;6.50;99.90;;;;;;5032055;28;20191;-69
2022/03/28 05:34:30;;;;;;;0.70;0.50;;;6.50;99.90;;;;;;5031616;28;20214;-69
2022/03/28 05:37:01;;;;;;;1.53;1.43;;;6.50;99.90;;;;;;5031779;28;20504;-69
2022/03/28 05:39:27;;;;;;;0.70;0.50;;;6.50;99.90;;;;;;5031763;28;20462;-69
2022/03/28 05:41:53;;;;;;;0.70;0.60;;;6.50;99.90;;;;;;5031809;28;20399;-68
2022/03/28 05:44:20;;;;;;;0.90;0.80;;;6.60;99.90;;;;;;5031341;28;20815;-68
2022/03/28 05:46:48;;;;;;;1.10;1.00;;;6.60;99.90;;;;;;5031826;28;20432;-69
2022/03/28 05:49:14;;;;;;;0.70;0.57;;;6.60;99.90;;;;;;5031907;28;20407;-69
2022/03/28 05:51:39;;;;;;;2.00;1.90;;;6.80;99.90;;;;;;5031706;28;20434;-69
2022/03/28 05:54:05;;;;;;;0.70;0.50;;;6.90;99.90;;;;;;5031321;28;20465;-70
2022/03/28 05:56:30;;;;;;;0.70;0.50;;;7.00;99.90;;;;;;5030387;28;20269;-69
2022/03/28 05:58:56;;;;;;;1.00;1.00;;;7.10;99.90;;;;;;5031728;28;20195;-69
2022/03/28 06:01:21;;;;;;;1.43;1.33;;;7.30;99.90;;;;;;5031624;28;20156;-68
2022/03/28 06:03:47;;;;;;;1.77;0.73;;;7.40;99.90;;;;;;5031437;28;20168;-69
2022/03/28 06:06:12;;;;;;;1.70;1.23;;;7.50;99.90;;;;;;5031522;28;20230;-69
2022/03/28 06:08:38;;;;;;;1.47;1.37;;;7.70;99.90;;;;;;5031671;28;20231;-70
2022/03/28 06:11:04;;;;;;;1.33;1.23;;;7.90;99.90;;;;;;5031624;28;20195;-69
2022/03/28 06:13:30;;;;;;;3.17;1.83;;;8.10;99.90;;;;;;5031163;28;20167;-68
2022/03/28 06:15:56;;;;;;;4.90;3.17;;;8.40;99.90;;;;;;5031375;28;20505;-69
2022/03/28 06:18:22;;;;;;;0.70;0.50;;;8.70;99.90;;;;;;5031403;28;20875;-69
2022/03/28 06:20:48;;;;;;;1.30;1.00;;;9.10;99.90;;;;;;5031395;28;20180;-70
2022/03/28 06:23:13;;;;;;;0.80;0.60;;;9.50;99.90;;;;;;5031233;28;20171;-69
2022/03/28 06:25:40;;;;;;;2.37;1.73;;;9.90;99.90;;;;;;5032257;28;20190;-70
2022/03/28 06:28:06;;;;;;;2.57;1.67;;;10.40;99.90;;;;;;5035116;28;20168;-71
2022/03/28 06:30:32;;;;;;;2.50;2.10;;;10.80;99.90;;;;;;5035193;28;20501;-70
2022/03/28 06:32:57;;;;;;;3.13;2.60;;;11.20;99.90;;;;;;5033769;28;20851;-68
2022/03/28 06:35:23;;;;;;;2.43;2.20;;;11.70;99.90;;;;;;5033519;28;20202;-70
2022/03/28 06:37:52;;;;;;;4.00;1.93;;;12.10;99.90;;;;;;5033530;28;20727;-71
2022/03/28 06:40:18;;;;;;;4.07;3.03;;;12.60;99.90;;;;;;5035009;28;20170;-70
2022/03/28 06:42:43;;;;;;;2.60;1.63;;;13.00;99.90;;;;;;5034894;28;20403;-70
2022/03/28 06:45:12;;;;;;;2.50;2.23;;;13.50;99.90;;;;;;5034386;28;20426;-70
2022/03/28 06:47:38;;;;;;;3.00;2.80;;;14.00;99.90;;;;;;5034819;28;20167;-71
2022/03/28 06:50:05;;;;;;;5.73;2.67;;;14.50;99.90;;;;;;5034607;28;20500;-70
2022/03/28 06:52:32;;;;;;;2.93;2.30;;;15.10;99.90;;;;;;5033476;28;20502;-71
2022/03/28 06:54:58;;;;;;;3.20;1.80;;;15.60;99.90;;;;;;5034244;28;20540;-70
2022/03/28 06:57:24;;;;;;;2.17;1.53;;;16.20;99.90;;;;;;5034615;28;20463;-70
2022/03/28 06:59:49;;;;;;;4.43;2.90;;;16.70;99.90;;;;;;5034481;28;20866;-71
2022/03/28 07:02:15;;;;;;;3.80;2.20;;;17.20;99.90;;;;;;5034533;28;20175;-69
2022/03/28 07:04:41;;;;;;;2.93;2.73;;;17.70;99.90;;;;;;5034027;28;20667;-70
2022/03/28 07:07:08;;;;;;;2.77;2.50;;;18.10;99.90;;;;;;5033259;28;20538;-71
2022/03/28 07:09:37;;;;;;;5.13;3.23;;;18.40;99.90;;;;;;5034396;28;20180;-70
2022/03/28 07:12:05;;;;;;;6.03;2.90;;;18.70;99.90;;;;;;5034477;28;20818;-70
2022/03/28 07:14:30;;;;;;;4.77;2.97;;;18.80;99.90;;;;;;5033960;28;20444;-71
2022/03/28 07:16:56;;;;;;;12.03;5.87;;;19.10;99.90;;;;;;5034264;28;20414;-71
2022/03/28 07:19:22;;;;;;;6.40;3.07;;;19.40;99.90;;;;;;5034047;28;20668;-69
2022/03/28 07:21:48;;;;;;;6.03;4.30;;;19.90;99.90;;;;;;5034160;28;20155;-70
2022/03/28 07:24:15;;;;;;;2.40;2.00;;;20.40;99.90;;;;;;5033804;28;20957;-70
2022/03/28 07:26:44;;;;;;;6.60;3.33;;;21.00;99.90;;;;;;5033978;28;20205;-71
2022/03/28 07:29:10;;;;;;;3.93;2.77;;;21.40;99.90;;;;;;5032794;28;20413;-71
2022/03/28 07:31:39;;;;;;;4.03;2.57;;;22.00;99.90;;;;;;5033958;28;20485;-72
2022/03/28 07:36:52;;;;;;;5.93;3.30;;;22.90;95.70;;;;;;5033185;28;20770;-71
2022/03/28 07:39:20;;;;;;;5.03;4.63;;;23.60;91.90;;;;;;5033539;28;20458;-70
2022/03/28 07:41:46;;;;;;;4.50;3.70;;;24.10;88.70;;;;;;5034201;28;20171;-70
2022/03/28 07:44:11;;;;;;;5.83;3.73;;;24.70;81.80;;;;;;5033639;28;20406;-69
2022/03/28 07:46:37;;;;;;;9.47;4.07;;;25.20;76.30;;;;;;5033458;28;20460;-69
2022/03/28 07:49:02;;;;;;;8.40;3.80;;;25.60;72.10;;;;;;5033580;28;20217;-69
2022/03/28 07:51:28;;;;;;;6.57;4.10;;;25.90;66.80;;;;;;5033571;28;20254;-70
2022/03/28 07:53:54;;;;;;;6.10;4.67;;;26.30;64.00;;;;;;5033202;28;20899;-70
2022/03/28 07:56:20;;;;;;;5.57;3.23;;;26.50;61.80;;;;;;5033409;28;20194;-70
2022/03/28 07:58:46;;;;;;;4.30;2.90;;;26.80;59.30;;;;;;5033390;28;20446;-70
2022/03/28 08:01:12;;;;;;;4.20;3.40;;;27.10;58.50;;;;;;5033399;28;20402;-70
2022/03/28 08:03:38;;;;;;;15.80;6.30;;;27.30;56.70;;;;;;5033004;28;20249;-70
2022/03/28 08:06:04;;;;;;;7.80;3.90;;;27.60;56.00;;;;;;5033205;28;20214;-70
2022/03/28 08:08:32;;;;;;;4.33;3.07;;;28.10;54.80;;;;;;5033292;28;20171;-70
2022/03/28 08:10:58;;;;;;;6.80;3.80;;;28.60;53.90;;;;;;5026635;28;20176;-70
2022/03/28 08:13:24;;;;;;;6.53;4.93;;;29.10;52.10;;;;;;5018577;28;20785;-70
2022/03/28 08:15:50;;;;;;;5.20;3.93;;;29.70;51.00;;;;;;5022121;28;20422;-71
2022/03/28 08:18:16;;;;;;;4.43;3.27;;;30.20;50.00;;;;;;5020889;28;20447;-70
2022/03/28 08:20:43;;;;;;;6.83;3.93;;;30.90;49.80;;;;;;5020746;28;20168;-71
2022/03/28 08:23:09;;;;;;;5.87;3.80;;;31.60;48.10;;;;;;5023089;28;20931;-69
2022/03/28 08:25:35;;;;;;;4.60;4.10;;;32.10;46.60;;;;;;5012893;28;20453;-70
2022/03/28 08:28:01;;;;;;;8.23;4.23;;;32.80;46.00;;;;;;5012786;28;20494;-71
2022/03/28 08:30:27;;;;;;;14.83;4.83;;;33.40;44.80;;;;;;5012534;28;20731;-70
2022/03/28 08:32:54;;;;;;;5.90;3.73;;;34.10;43.80;;;;;;5012836;28;20191;-70
2022/03/28 08:35:21;;;;;;;7.20;4.10;;;34.60;42.30;;;;;;5012550;28;20427;-70
2022/03/28 08:37:46;;;;;;;6.33;3.50;;;35.00;40.80;;;;;;5012644;28;20589;-71
2022/03/28 08:40:15;;;;;;;5.13;3.87;;;35.50;40.40;;;;;;5012635;28;20524;-70
2022/03/28 08:42:41;;;;;;;8.17;6.23;;;36.00;39.50;;;;;;5012510;28;20164;-71
2022/03/28 08:45:08;;;;;;;11.90;7.00;;;36.50;38.80;;;;;;5010976;28;20434;-70
2022/03/28 08:47:37;;;;;;;5.47;4.90;;;36.90;38.20;;;;;;5012658;28;20642;-71
2022/03/28 08:50:04;;;;;;;10.10;4.43;;;37.30;37.80;;;;;;5012260;28;20407;-72
2022/03/28 08:52:30;;;;;;;5.20;4.70;;;37.80;37.10;;;;;;5012207;28;20817;-70
2022/03/28 08:54:56;;;;;;;5.87;4.13;;;38.30;36.80;;;;;;5011744;28;20447;-70
2022/03/28 08:57:22;;;;;;;6.37;3.97;;;38.70;36.10;;;;;;5012245;28;20180;-69
2022/03/28 08:59:47;;;;;;;3.80;3.50;;;39.00;35.40;;;;;;5012460;28;20176;-72
2022/03/28 09:02:42;;;;;;;5.93;5.10;;;39.40;34.80;;;;;;5012253;28;20160;-71
2022/03/28 09:05:14;;;;;;;6.57;4.60;;;39.70;34.50;;;;;;5011979;28;20192;-72
2022/03/28 09:07:41;;;;;;;5.70;4.63;;;40.00;33.60;;;;;;5012219;28;20765;-72
2022/03/28 09:10:17;;;;;;;8.90;3.63;;;40.40;33.80;;;;;;5012311;28;20407;-71
2022/03/28 09:13:01;;;;;;;6.00;4.67;;;40.80;33.40;;;;;;5012104;28;20407;-71
2022/03/28 09:15:45;;;;;;;6.37;4.23;;;41.10;32.40;;;;;;5011857;28;20423;-71
2022/03/28 09:18:25;;;;;;;5.30;4.47;;;41.50;32.20;;;;;;5012110;28;20437;-71
2022/03/28 09:20:55;;;;;;;6.30;5.70;;;41.90;32.00;;;;;;5012456;28;20885;-72
2022/03/28 09:23:29;;;;;;;3.80;3.50;;;42.10;31.80;;;;;;5012038;28;20370;-70
2022/03/28 09:25:55;;;;;;;8.03;5.93;;;42.50;31.50;;;;;;5012189;28;20397;-71
2022/03/28 09:28:33;;;;;;;6.10;5.07;;;42.70;30.80;;;;;;5012163;28;20462;-71
2022/03/28 09:31:15;;;;;;;6.20;5.63;;;43.10;30.90;;;;;;5010904;28;20207;-71
2022/03/28 09:34:17;;;;;;;8.50;5.00;;;43.40;30.20;;;;;;5011915;28;20457;-71
2022/03/28 09:36:54;;;;;;;12.63;7.10;;;43.70;29.90;;;;;;5011848;28;20799;-69
2022/03/28 09:39:25;;;;;;;5.10;4.60;;;43.90;29.70;;;;;;5011913;28;20420;-69
2022/03/28 09:42:10;;;;;;;7.97;5.10;;;44.10;29.60;;;;;;5012087;28;20389;-70
2022/03/28 09:44:37;;;;;;;6.30;5.70;;;44.30;29.60;;;;;;5012157;28;20389;-69
2022/03/28 09:47:11;;;;;;;8.57;5.10;;;44.60;29.20;;;;;;5011895;28;20377;-69
2022/03/28 09:49:38;;;;;;;7.67;5.40;;;44.80;28.80;;;;;;5012051;28;20432;-69
2022/03/28 09:52:10;;;;;;;6.70;4.47;;;44.90;28.50;;;;;;5011917;28;20403;-69
2022/03/28 09:54:50;;;;;;;6.23;4.57;;;45.20;28.20;;;;;;5011558;28;20423;-69
2022/03/28 09:57:23;;;;;;;6.53;5.63;;;45.30;27.80;;;;;;5011989;28;20438;-68
2022/03/28 09:59:49;;;;;;;6.50;4.77;;;45.60;27.70;;;;;;5011950;28;20477;-69
2022/03/28 10:02:22;;;;;;;8.87;5.93;;;45.80;27.40;;;;;;5015408;28;20385;-70
2022/03/28 10:04:51;;;;;;;5.03;4.40;;;46.00;27.30;;;;;;5015473;28;20460;-69
2022/03/28 10:07:18;;;;;;;5.20;3.87;;;46.20;26.90;;;;;;5015612;28;20378;-70
2022/03/28 10:09:44;;;;;;;4.57;4.17;;;46.50;26.90;;;;;;5016125;28;20415;-69
2022/03/28 10:12:10;;;;;;;6.83;3.50;;;46.70;26.80;;;;;;5015553;28;20378;-70
2022/03/28 10:14:36;;;;;;;6.13;5.10;;;47.00;26.40;;;;;;5015197;28;20425;-68
2022/03/28 10:17:03;;;;;;;4.23;3.70;;;47.30;26.10;;;;;;5015489;28;20196;-68
2022/03/28 10:19:36;;;;;;;3.70;3.40;;;47.50;25.90;;;;;;5015541;28;20411;-70
2022/03/28 10:22:08;;;;;;;5.50;3.63;;;47.80;25.40;;;;;;5015633;28;20377;-69
2022/03/28 10:24:35;;;;;;;5.03;3.53;;;48.20;25.20;;;;;;5015021;28;20513;-70
2022/03/28 10:27:02;;;;;;;4.23;3.70;;;48.40;24.80;;;;;;5015423;28;20386;-70
2022/03/28 10:29:36;;;;;;;4.37;3.97;;;48.70;24.70;;;;;;5015220;28;20508;-69
2022/03/28 10:32:08;;;;;;;4.17;3.77;;;48.70;24.60;;;;;;5015309;28;20381;-69
2022/03/28 10:34:53;;;;;;;4.70;4.03;;;48.80;24.50;;;;;;5014960;28;20390;-70
2022/03/28 10:37:31;;;;;;;4.17;3.20;;;49.20;24.80;;;;;;5015199;28;20377;-69
2022/03/28 10:40:22;;;;;;;4.70;3.73;;;49.70;24.40;;;;;;5015235;28;20810;-70
2022/03/28 10:42:51;;;;;;;5.07;4.67;;;49.90;23.70;;;;;;5015141;28;20389;-69
2022/03/28 10:45:19;;;;;;;4.13;3.83;;;49.90;24.00;;;;;;5014652;28;20428;-69
2022/03/28 10:47:53;;;;;;;4.10;3.77;;;50.00;24.00;;;;;;5014837;28;20460;-69
2022/03/28 10:50:24;;;;;;;4.50;4.10;;;50.20;23.90;;;;;;5014976;28;20399;-69
2022/03/28 10:53:08;;;;;;;4.03;3.73;;;50.60;23.90;;;;;;5014972;28;20415;-69
2022/03/28 10:55:50;;;;;;;4.30;3.90;;;50.90;23.80;;;;;;5014486;28;20510;-70
2022/03/28 10:58:20;;;;;;;4.97;4.57;;;51.30;23.70;;;;;;5014952;28;20506;-69
2022/03/28 11:01:13;;;;;;;4.97;4.40;;;51.50;23.40;;;;;;5014721;28;20468;-69
2022/03/28 11:03:58;;;;;;;5.20;4.70;;;51.80;23.10;;;;;;5014427;28;20378;-69
2022/03/28 11:06:53;;;;;;;5.43;3.83;;;52.10;23.00;;;;;;5014591;28;20560;-70
2022/03/28 11:09:45;;;;;;;4.70;3.80;;;52.50;23.20;;;;;;5014797;28;20461;-69
2022/03/28 11:12:29;;;;;;;5.63;4.77;;;52.80;23.20;;;;;;5013191;28;20413;-69
2022/03/28 11:14:56;;;;;;;4.90;4.40;;;53.20;23.00;;;;;;5014374;28;20755;-69
2022/03/28 11:17:24;;;;;;;5.00;4.57;;;53.40;22.90;;;;;;5014623;28;20435;-69
2022/03/28 11:19:53;;;;;;;4.10;3.70;;;53.70;23.00;;;;;;5014294;28;20442;-70
2022/03/28 11:22:49;;;;;;;4.30;4.00;;;53.80;22.80;;;;;;5014242;28;20418;-69
2022/03/28 11:25:27;;;;;;;3.13;2.93;;;54.10;22.80;;;;;;5017508;28;20396;-69
2022/03/28 11:28:05;;;;;;;4.40;4.10;;;54.40;22.50;;;;;;5033937;28;20755;-69
2022/03/28 11:30:31;;;;;;;4.70;4.30;;;54.70;22.60;;;;;;5033831;28;20429;-69
2022/03/28 11:32:58;;;;;;;4.73;4.13;;;54.80;22.40;;;;;;5033926;28;20373;-69
2022/03/28 11:35:23;;;;;;;4.77;4.37;;;55.00;22.30;;;;;;5033459;28;20233;-69
2022/03/28 11:37:49;;;;;;;4.53;4.13;;;55.10;22.30;;;;;;5033837;28;20406;-69
2022/03/28 11:40:15;;;;;;;5.27;3.97;;;55.10;22.20;;;;;;5033840;28;20203;-69
2022/03/28 11:42:46;;;;;;;4.33;3.97;;;55.20;22.30;;;;;;5033743;28;20441;-69
2022/03/28 11:45:12;;;;;;;6.07;4.27;;;55.40;22.30;;;;;;5032154;28;20214;-69
2022/03/28 11:47:49;;;;;;;4.00;3.70;;;55.50;22.30;;;;;;5033629;28;20410;-69
2022/03/28 11:50:15;;;;;;;4.40;4.00;;;55.70;22.20;;;;;;5033634;28;20409;-70
2022/03/28 11:52:41;;;;;;;5.90;5.40;;;55.90;21.90;;;;;;5033529;28;20415;-69
2022/03/28 11:55:25;;;;;;;4.47;4.17;;;56.10;22.20;;;;;;5032751;28;20453;-69
2022/03/28 12:00:40;;;;;;;5.70;5.10;;;56.40;21.70;;;;;;5033476;28;20425;-69
2022/03/28 12:03:09;;;;;;;5.40;4.50;;;56.40;21.90;;;;;;5033105;28;20413;-69
2022/03/28 12:05:40;;;;;;;5.13;4.73;;;56.50;21.60;;;;;;5032847;28;20433;-69
2022/03/28 12:08:17;;;;;;;4.83;4.30;;;56.70;22.00;;;;;;5032918;28;20446;-69
2022/03/28 12:10:49;;;;;;;4.90;4.50;;;56.80;21.70;;;;;;5033034;28;20854;-69
2022/03/28 12:13:15;;;;;;;5.57;5.13;;;56.90;21.40;;;;;;5032923;28;20398;-69
2022/03/28 12:15:44;;;;;;;4.70;4.30;;;57.00;21.50;;;;;;5032579;28;20401;-69
2022/03/28 12:18:10;;;;;;;6.10;5.13;;;57.20;21.60;;;;;;5032813;28;20402;-69
2022/03/28 12:20:40;;;;;;;5.60;5.10;;;57.40;21.30;;;;;;5032716;28;20748;-69
2022/03/28 12:23:07;;;;;;;4.67;4.17;;;57.40;21.40;;;;;;5032304;28;20772;-69
2022/03/28 12:25:37;;;;;;;5.77;5.20;;;57.30;21.50;;;;;;5032255;28;20422;-69
2022/03/28 12:28:13;;;;;;;7.10;4.10;;;57.40;21.40;;;;;;5032545;28;20456;-69
2022/03/28 12:30:50;;;;;;;4.67;3.70;;;57.40;21.10;;;;;;5032524;28;20394;-69
2022/03/28 12:33:17;;;;;;;4.40;4.10;;;57.50;20.60;;;;;;5032599;28;20402;-69
2022/03/28 12:35:49;;;;;;;3.77;3.57;;;57.60;20.50;;;;;;5032186;28;20437;-69
2022/03/28 12:38:19;;;;;;;4.93;3.90;;;57.80;20.40;;;;;;5032542;28;20887;-69
2022/03/28 12:40:46;;;;;;;4.10;3.80;;;57.90;20.50;;;;;;5032455;28;20402;-69
2022/03/28 12:43:13;;;;;;;4.50;4.10;;;58.00;20.60;;;;;;5032329;28;20409;-69
2022/03/28 12:45:39;;;;;;;4.27;3.93;;;57.90;20.40;;;;;;5031974;28;20422;-69
2022/03/28 12:48:07;;;;;;;6.67;5.23;;;57.70;20.50;;;;;;5032127;28;20450;-69
2022/03/28 12:50:34;;;;;;;4.83;4.33;;;57.70;20.50;;;;;;5032384;28;20457;-69
2022/03/28 12:53:08;;;;;;;5.50;5.00;;;57.80;20.60;;;;;;5032273;28;20485;-70
2022/03/28 12:55:34;;;;;;;5.80;5.27;;;57.90;20.80;;;;;;5031749;28;20442;-69
2022/03/28 12:58:00;;;;;;;4.40;4.00;;;58.00;20.50;;;;;;5032062;28;20456;-69
2022/03/28 13:00:26;;;;;;;8.63;4.27;;;57.40;20.10;;;;;;5032156;28;20211;-69
2022/03/28 13:02:53;;;;;;;5.60;3.90;;;56.50;19.80;;;;;;5032049;28;20406;-69